• Join FlightAware (Why Join?)
  • Login
  • US Flag 
04:10AM EDT


 

Airport Tracker/Info


-or-


 

Live Flight TrackerFlight Track Log ✈ CTL16 ✈ 26-Apr-2013 ✈ KHAO - KBKL

Flight Track Log - Related Links

Times and Time Zones

All times are in EDT time to prevent confusion due to time zone crossing. See the CTL16 flight status page for this flight to view local times or setup timezone preferences in your user account.

Time Position Orientation Groundspeed Altitude Reporting Facility
EDT Latitude Longitude Course Direction KTS MPH feet Rate Location/Type
08:40PM 39.4167 -84.4833 42° Northeast 144 166 2,500  Level Cincinnati TRACON
08:41PM 39.4392 -84.4567 42° Northeast 134 154 3,500 840 Climbing Indianapolis Center
08:42PM 39.4506 -84.4436 42° Northeast 138 159 3,800 960 Climbing Indianapolis Center
08:42PM 39.4653 -84.4194 52° Northeast 144 166 4,500 1,020 Climbing Indianapolis Center
08:43PM 39.4764 -84.4058 43° Northeast 139 160 4,900 840 Climbing Indianapolis Center
08:43PM 39.4936 -84.3800 49° Northeast 129 148 5,500 840 Climbing Indianapolis Center
08:44PM 39.5003 -84.3706 48° Northeast 134 154 5,800 960 Climbing Indianapolis Center
08:45PM 39.5175 -84.3428 51° Northeast 125 144 6,600 660 Climbing Indianapolis Center
08:45PM 39.5386 -84.3158 45° Northeast 117 135 7,000 300 Climbing Indianapolis Center
08:46PM 39.5450 -84.3039 55° Northeast 121 139 7,000  Level Indianapolis Center
08:46PM 39.5672 -84.2736 46° Northeast 160 184 7,000  Level Indianapolis Center
08:47PM 39.5767 -84.2589 50° Northeast 159 183 7,000  Level Indianapolis Center
08:47PM 39.6003 -84.2264 47° Northeast 171 197 7,000  Level Indianapolis Center
08:48PM 39.6086 -84.2156 45° Northeast 164 189 7,000  Level Indianapolis Center
08:48PM 39.6283 -84.1894 46° Northeast 168 193 7,000 -120 Level Indianapolis Center
08:49PM 39.6411 -84.1694 50° Northeast 168 193 6,900 60 Descending Indianapolis Center
08:49PM 39.6617 -84.1397 48° Northeast 169 194 7,100  Climbing Indianapolis Center
08:50PM 39.6733 -84.1258 42° Northeast 168 193 6,900 -120 Descending Indianapolis Center
08:50PM 39.6922 -84.0947 52° Northeast 168 193 7,000 60 Climbing Indianapolis Center
08:51PM 39.7042 -84.0800 43° Northeast 167 192 7,000  Level Indianapolis Center
08:51PM 39.7250 -84.0503 48° Northeast 171 197 7,000  Level Indianapolis Center
08:52PM 39.7369 -84.0342 46° Northeast 168 193 7,000 -120 Level Indianapolis Center
08:52PM 39.7578 -84.0056 47° Northeast 166 191 6,900 -120 Descending Indianapolis Center
08:53PM 39.7694 -83.9897 46° Northeast 169 194 6,900 60 Level Indianapolis Center
08:53PM 39.7886 -83.9608 49° Northeast 166 191 7,000 60 Climbing Indianapolis Center
08:54PM 39.8067 -83.9375 45° Northeast 168 193 7,000  Level Indianapolis Center
08:54PM 39.8214 -83.9161 48° Northeast 167 192 7,000  Level Indianapolis Center
08:55PM 39.8383 -83.8925 47° Northeast 167 192 7,000  Level Indianapolis Center
08:55PM 39.8519 -83.8711 50° Northeast 167 192 7,000  Level Indianapolis Center
08:56PM 39.8697 -83.8469 46° Northeast 167 192 7,000 180 Level Indianapolis Center
08:56PM 39.8867 -83.8292 39° Northeast 168 193 7,200  Climbing Indianapolis Center
08:57PM 39.9044 -83.8058 45° Northeast 167 192 7,000 -240 Descending Indianapolis Center
08:57PM 39.9211 -83.7875 40° Northeast 169 194 7,000  Level Indianapolis Center
08:58PM 39.9403 -83.7644 43° Northeast 169 194 7,000  Level Indianapolis Center
08:58PM 39.9558 -83.7456 43° Northeast 169 194 7,000  Level Indianapolis Center
08:59PM 39.9758 -83.7228 41° Northeast 169 194 7,000  Level Indianapolis Center
08:59PM 39.9903 -83.7036 45° Northeast 169 194 7,000  Level Indianapolis Center
09:00PM 40.0097 -83.6783 45° Northeast 170 196 7,000  Level Indianapolis Center
09:01PM 40.0231 -83.6561 52° Northeast 170 196 7,000  Level Indianapolis Center
09:01PM 40.0422 -83.6328 43° Northeast 170 196 7,000  Level Indianapolis Center
09:02PM 40.0578 -83.6139 43° Northeast 170 196 7,000  Level Indianapolis Center
09:02PM 40.0783 -83.5906 41° Northeast 170 196 7,000  Level Indianapolis Center
09:03PM 40.0942 -83.5722 42° Northeast 172 198 7,000  Level Indianapolis Center
09:03PM 40.1142 -83.5483 42° Northeast 171 197 7,000  Level Indianapolis Center
09:04PM 40.1286 -83.5300 44° Northeast 171 197 7,000  Level Indianapolis Center
09:04PM 40.1489 -83.5050 43° Northeast 170 196 7,000  Level Indianapolis Center
09:05PM 40.1633 -83.4853 46° Northeast 170 196 7,000  Level Indianapolis Center
09:05PM 40.1828 -83.4611 44° Northeast 171 197 7,000  Level Indianapolis Center
09:06PM 40.1978 -83.4431 43° Northeast 170 196 7,000  Level Indianapolis Center
09:06PM 40.2175 -83.4186 43° Northeast 169 194 7,000  Level Indianapolis Center
09:07PM 40.2344 -83.4011 38° Northeast 172 198 7,000  Level Indianapolis Center
09:07PM 40.2525 -83.3750 48° Northeast 171 197 7,000  Level Indianapolis Center
09:08PM 40.2667 -83.3586 41° Northeast 167 192 7,000  Level Indianapolis Center
09:08PM 40.2881 -83.3339 41° Northeast 169 194 7,000  Level Indianapolis Center
09:09PM 40.3233 -83.2919 42° Northeast 169 194 7,000  Level Indianapolis Center
09:10PM 40.3589 -83.2475 44° Northeast 173 199 7,000  Level Indianapolis Center
09:11PM 40.3933 -83.2050 43° Northeast 171 197 7,000  Level Indianapolis Center
09:12PM 40.4303 -83.1644 40° Northeast 171 197 7,000  Level Indianapolis Center
09:13PM 40.4653 -83.1233 42° Northeast 169 194 7,000  Level Indianapolis Center
09:14PM 40.5069 -83.0764 41° Northeast 167 192 7,000  Level Indianapolis Center
09:15PM 40.5394 -83.0422 39° Northeast 167 192 7,000 -120 Level Indianapolis Center
09:16PM 40.5683 -82.9953 51° Northeast 164 189 6,800 -360 Descending Indianapolis Center
09:17PM 40.5997 -82.9408 53° Northeast 181 208 6,300 -540 Descending Indianapolis Center
09:18PM 40.6322 -82.8897 50° Northeast 182 209 5,700 -660 Descending Indianapolis Center
09:19PM 40.6678 -82.8264 53° Northeast 182 209 5,000 -360 Descending Indianapolis Center
09:21PM 40.6961 -82.7725 55° Northeast 177 204 5,000  Level Indianapolis Center
09:22PM 40.7233 -82.7239 54° Northeast 168 193 5,100  Climbing Indianapolis Center
09:22PM 40.7397 -82.6933 55° Northeast 165 190 5,000 -120 Descending Cleveland Center
09:23PM 40.7569 -82.6636 53° Northeast 169 194 5,000  Level Cleveland Center
09:24PM 40.7808 -82.6150 57° Northeast 172 198 5,000  Level Cleveland Center
09:25PM 40.8108 -82.5639 52° Northeast 171 197 5,000  Level Cleveland Center
09:26PM 40.8389 -82.5097 56° Northeast 172 198 5,100  Climbing Cleveland Center
09:27PM 40.8647 -82.4528 59° Northeast 169 194 5,000  Descending Cleveland Center
09:28PM 40.8864 -82.4014 61° Northeast 167 192 5,100  Climbing Cleveland Center
09:29PM 40.9061 -82.3497 63° Northeast 166 191 5,000 -60 Descending Cleveland Center
09:30PM 40.9364 -82.2736 62° Northeast 170 196 5,000 60 Level Cleveland Center
09:31PM 40.9539 -82.2272 63° Northeast 169 194 5,200  Climbing Cleveland Center
09:32PM 40.9731 -82.1808 61° Northeast 169 194 5,100 -60 Descending Cleveland Center
09:33PM 40.9947 -82.1292 61° Northeast 167 192 5,100 -60 Level Cleveland Center
09:34PM 41.0244 -82.0803 51° Northeast 173 199 5,000 -60 Descending Cleveland Center
09:35PM 41.0606 -82.0425 38° Northeast 168 193 5,000  Level Cleveland Center
09:36PM 41.0944 -81.9967 46° Northeast 173 199 5,000 -180 Level Cleveland Center
09:37PM 41.1347 -81.9478 42° Northeast 175 201 4,700 -360 Descending Cleveland Center
09:38PM 41.1706 -81.9072 40° Northeast 184 212 4,300 -420 Descending Cleveland Center
09:39PM 41.2067 -81.8608 44° Northeast 185 213 3,900 -420 Descending Cleveland Center
09:40PM 41.2486 -81.8231 34° Northeast 187 215 3,500 -480 Descending Cleveland Center
09:41PM 41.3072 -81.7939 20° North 194 223 3,000 -240 Descending Cleveland Center
09:42PM 41.3514 -81.7725 20° North 165 190 3,000 -60 Level Cleveland Center
09:43PM 41.3953 -81.7567 15° North 171 197 2,900 -540 Descending Cleveland Center
09:44PM 41.4414 -81.7381 17° North 186 214 2,000 -780 Descending Cleveland Center
09:45PM 41.4853 -81.7306 North 149 171 1,500 -600 Descending Cleveland Center
09:46PM 41.5042 -81.7144 33° Northeast 83 96 900 -600 Descending Cleveland Center